Cynthiana, Ohio
Current Conditions -  °F | °C
As of 1:55 PM on Sunday 23 Nov 2014 (Local Time) from KRZT Reporting Station
Broken Clouds Broken Clouds  
Wind Chill: 63°   Ceiling: 9000
Heat Index: 63°   Visibility: 10mi
Dew Point: 37°   Wind: 6mph
Humidity: 39%   Direction: 150°SSE
Pressure: 29.79"   Gusts: NA
Location:  39.17°N, 83.35°W
Report Text: KRZT 231855Z AUTO 15005KT 10SM BKN090 17/03 A2979 RMK AO2
Loading
Personal Weather Stations






























Interactive Weather Map New forecast layout! Learn more

10-Day Weather Forecast

Advertisements
Track Severe Weather on mobile